Aviation Digital Data Service (ADDS)

Output produced by METARs form (0648 UTC 28 April 2015)
found at http://aviationweather.gov/adds/metars/
 
KLEB 280520Z 2806/2906 01009G19KT P6SM FEW035 
     FM281400 35013G23KT P6SM OVC050 
     FM282300 35009KT P6SM OVC050